Time;durP1;ratioP1;P1;durP2;ratioP2;P2;SDS_P1;SDS_P2;PMS_P1;PMS_P2;Temp;Humidity;BMP_temperature;BMP_pressure;BME280_temperature;BME280_humidity;BME280_pressure;Samples;Min_cycle;Max_cycle;Signal;HPM_P1;HPM_P2
2022/10/22 00:02:06;;;;;;;2.97;1.60;;;;;;;;;;5134663;27;20803;-64
2022/10/22 00:04:34;;;;;;;4.13;2.20;;;;;;;;;;5115206;28;20437;-64
2022/10/22 00:07:01;;;;;;;3.93;2.10;;;;;;;;;;5115067;28;20527;-67
2022/10/22 00:09:30;;;;;;;6.33;2.63;;;;;;;;;;5114819;27;20931;-64
2022/10/22 00:11:57;;;;;;;5.20;2.83;;;;;;;;;;5115889;27;20531;-64
2022/10/22 00:14:25;;;;;;;6.40;2.40;;;;;;;;;;5114951;28;20539;-65
2022/10/22 00:16:53;;;;;;;6.30;2.70;;;;;;;;;;5131788;27;20950;-64
2022/10/22 00:19:20;;;;;;;4.67;2.30;;;;;;;;;;5135076;27;20475;-64
2022/10/22 00:21:48;;;;;;;5.20;2.53;;;;;;;;;;5118573;27;20516;-65
2022/10/22 00:24:15;;;;;;;4.00;2.30;;;;;;;;;;5114589;28;20488;-64
2022/10/22 00:26:44;;;;;;;3.60;2.40;;;;;;;;;;5129313;27;20448;-64
2022/10/22 00:29:12;;;;;;;3.80;2.63;;;;;;;;;;5135279;27;20440;-64
2022/10/22 00:31:39;;;;;;;3.37;2.33;;;;;;;;;;5120543;27;20441;-64
2022/10/22 00:34:07;;;;;;;3.40;2.10;;;;;;;;;;5114919;28;20836;-64
2022/10/22 00:36:34;;;;;;;4.20;2.40;;;;;;;;;;5126863;27;20449;-64
2022/10/22 00:39:02;;;;;;;4.10;2.13;;;;;;;;;;5134944;27;20505;-64
2022/10/22 00:41:29;;;;;;;5.13;2.00;;;;;;;;;;5122703;27;20587;-64
2022/10/22 00:43:59;;;;;;;3.60;1.83;;;;;;;;;;5114042;28;20565;-64
2022/10/22 00:46:27;;;;;;;3.70;2.73;;;;;;;;;;5124146;27;20846;-64
2022/10/22 00:48:55;;;;;;;3.30;2.23;;;;;;;;;;5134700;27;20829;-64
2022/10/22 00:51:24;;;;;;;4.60;2.33;;;;;;;;;;5123702;27;20468;-64
2022/10/22 00:53:54;;;;;;;4.30;2.23;;;;;;;;;;5113963;28;20447;-64
2022/10/22 00:56:22;;;;;;;3.70;2.53;;;;;;;;;;5123422;27;20435;-65
2022/10/22 00:58:53;;;;;;;5.63;2.27;;;;;;;;;;5134556;27;20498;-67
2022/10/22 01:01:24;;;;;;;3.73;2.70;;;;;;;;;;5125436;27;20788;-65
2022/10/22 01:03:52;;;;;;;3.53;1.87;;;;;;;;;;5113448;28;20548;-64
2022/10/22 01:06:22;;;;;;;2.87;1.93;;;;;;;;;;5111137;27;20430;-65
2022/10/22 01:08:54;;;;;;;3.03;1.90;;;;;;;;;;5134183;27;20447;-67
2022/10/22 01:11:25;;;;;;;3.53;1.83;;;;;;;;;;5097714;28;20456;-65
2022/10/22 01:13:56;;;;;;;3.40;1.90;;;;;;;;;;5113708;28;20435;-64
2022/10/22 01:16:29;;;;;;;3.13;1.77;;;;;;;;;;5131478;27;20440;-65
2022/10/22 01:19:00;;;;;;;3.27;1.80;;;;;;;;;;5133957;27;20828;-65
2022/10/22 01:21:32;;;;;;;3.40;1.50;;;;;;;;;;5113472;27;20443;-64
2022/10/22 01:24:24;;;;;;;4.23;1.80;;;;;;;;;;5116078;27;20480;-64
2022/10/22 01:27:13;;;;;;;5.43;2.23;;;;;;;;;;5134242;27;20444;-65
2022/10/22 01:29:44;;;;;;;3.83;1.80;;;;;;;;;;5124724;27;20436;-64
2022/10/22 01:32:13;;;;;;;3.10;1.50;;;;;;;;;;5113559;27;20766;-64
2022/10/22 01:34:42;;;;;;;4.93;1.80;;;;;;;;;;5126655;27;20463;-64
2022/10/22 01:37:11;;;;;;;3.43;1.73;;;;;;;;;;5113267;28;20445;-64
2022/10/22 01:39:39;;;;;;;4.13;2.00;;;;;;;;;;5133022;27;20438;-64
2022/10/22 01:42:07;;;;;;;5.70;2.23;;;;;;;;;;5124849;27;20555;-64
2022/10/22 01:44:35;;;;;;;6.90;1.37;;;;;;;;;;5115410;27;21264;-65
2022/10/22 01:47:11;;;;;;;4.40;1.90;;;;;;;;;;5133832;27;20439;-64
2022/10/22 01:49:46;;;;;;;3.80;1.47;;;;;;;;;;5130146;27;20445;-64
2022/10/22 01:52:17;;;;;;;2.90;1.50;;;;;;;;;;5113316;28;20942;-64
2022/10/22 01:54:47;;;;;;;3.93;1.30;;;;;;;;;;5116107;27;20435;-64
2022/10/22 01:57:19;;;;;;;3.47;2.00;;;;;;;;;;5131915;27;20948;-64
2022/10/22 01:59:53;;;;;;;3.90;1.60;;;;;;;;;;5129666;27;20433;-65
2022/10/22 02:02:26;;;;;;;2.63;1.60;;;;;;;;;;5112735;28;20441;-66
2022/10/22 02:04:57;;;;;;;3.03;1.27;;;;;;;;;;5116983;27;20857;-65
2022/10/22 02:07:30;;;;;;;9.00;1.70;;;;;;;;;;5133341;27;20436;-64
2022/10/22 02:09:59;;;;;;;3.67;2.10;;;;;;;;;;5128395;27;20998;-64
2022/10/22 02:12:27;;;;;;;2.57;1.60;;;;;;;;;;5112586;28;20824;-64
2022/10/22 02:14:56;;;;;;;2.80;1.43;;;;;;;;;;5112305;28;20529;-64
2022/10/22 02:17:26;;;;;;;3.77;1.50;;;;;;;;;;5112705;28;20477;-65
2022/10/22 02:19:55;;;;;;;5.60;1.60;;;;;;;;;;5114992;28;20509;-64
2022/10/22 02:22:22;;;;;;;8.03;1.27;;;;;;;;;;5133274;28;20489;-65
2022/10/22 02:24:50;;;;;;;3.03;1.00;;;13.50;99.90;;;;;;5130968;28;20490;-64
2022/10/22 02:27:23;;;;;;;2.10;1.00;;;15.50;99.90;;;;;;5112679;28;20445;-65
2022/10/22 02:29:56;;;;;;;3.93;1.00;;;15.20;99.90;;;;;;5112485;28;20473;-65
2022/10/22 02:32:31;;;;;;;4.47;1.03;;;15.10;99.90;;;;;;5133206;28;20821;-64
2022/10/22 02:35:00;;;;;;;2.00;0.87;;;15.00;99.90;;;;;;5130880;28;20522;-64
2022/10/22 02:37:29;;;;;;;2.00;1.03;;;15.00;99.90;;;;;;5112351;28;20918;-65
2022/10/22 02:39:57;;;;;;;2.43;1.17;;;15.00;99.90;;;;;;5113018;28;20798;-65
2022/10/22 02:42:29;;;;;;;4.33;1.50;;;15.00;99.90;;;;;;5133148;28;20848;-65
2022/10/22 02:44:56;;;;;;;4.60;1.30;;;14.90;99.90;;;;;;5132126;28;20484;-64
2022/10/22 02:47:23;;;;;;;4.80;0.70;;;14.90;99.90;;;;;;5112385;28;20445;-64
2022/10/22 02:49:52;;;;;;;1.90;0.90;;;14.90;99.90;;;;;;5112045;28;20827;-66
2022/10/22 02:52:19;;;;;;;2.10;0.73;;;14.90;99.90;;;;;;5133074;28;20432;-64
2022/10/22 02:54:46;;;;;;;2.40;1.10;;;14.80;99.90;;;;;;5133148;28;20493;-64
2022/10/22 02:57:14;;;;;;;1.87;0.90;;;14.80;99.90;;;;;;5113183;28;20449;-64
2022/10/22 02:59:41;;;;;;;2.77;0.90;;;14.70;99.90;;;;;;5112235;28;20442;-64
2022/10/22 03:02:08;;;;;;;2.77;1.07;;;14.70;99.90;;;;;;5126518;27;20469;-64
2022/10/22 03:04:36;;;;;;;6.30;1.20;;;14.70;99.90;;;;;;5116107;28;20489;-64
2022/10/22 03:07:04;;;;;;;1.90;1.00;;;14.60;99.90;;;;;;5116099;28;20518;-64
2022/10/22 03:09:32;;;;;;;1.77;0.77;;;14.50;99.90;;;;;;5131887;27;20438;-64
2022/10/22 03:11:59;;;;;;;2.57;1.73;;;14.50;99.90;;;;;;5120932;27;20455;-64
2022/10/22 03:14:26;;;;;;;3.80;2.60;;;14.50;99.90;;;;;;5116155;28;20455;-64
2022/10/22 03:16:54;;;;;;;2.53;1.30;;;14.40;99.90;;;;;;5129454;27;20850;-64
2022/10/22 03:19:21;;;;;;;2.87;1.80;;;14.30;99.90;;;;;;5136310;27;20509;-64
2022/10/22 03:21:50;;;;;;;3.70;1.80;;;14.20;99.90;;;;;;5123514;27;20963;-66
2022/10/22 03:24:23;;;;;;;1.97;0.87;;;14.10;99.90;;;;;;5115709;28;21042;-64
2022/10/22 03:26:52;;;;;;;1.73;0.90;;;14.10;99.90;;;;;;5127527;27;20861;-64
2022/10/22 03:29:22;;;;;;;1.70;0.80;;;14.00;99.90;;;;;;5133594;27;20441;-64
2022/10/22 03:31:49;;;;;;;1.70;0.70;;;13.90;99.90;;;;;;5115446;28;20440;-66
2022/10/22 03:34:16;;;;;;;1.60;0.80;;;13.80;99.90;;;;;;5116420;27;20443;-66
2022/10/22 03:36:46;;;;;;;2.40;1.03;;;13.80;99.90;;;;;;5136106;27;20441;-64
2022/10/22 03:39:14;;;;;;;2.00;0.77;;;13.80;99.90;;;;;;5134424;27;20441;-64
2022/10/22 03:41:44;;;;;;;2.20;1.00;;;13.80;99.90;;;;;;5115691;28;20494;-65
2022/10/22 03:44:12;;;;;;;2.27;1.00;;;13.70;99.90;;;;;;5115328;28;20568;-65
2022/10/22 03:46:39;;;;;;;4.70;0.80;;;13.70;99.90;;;;;;5135679;27;20437;-64
2022/10/22 03:49:06;;;;;;;3.03;1.00;;;13.80;99.90;;;;;;5135974;27;20442;-64
2022/10/22 03:51:34;;;;;;;2.57;0.70;;;13.80;99.90;;;;;;5115684;27;20439;-64
2022/10/22 03:54:02;;;;;;;1.90;0.97;;;13.80;99.90;;;;;;5115084;28;21082;-64
2022/10/22 03:56:29;;;;;;;1.60;0.60;;;13.80;99.90;;;;;;5133153;27;20442;-64
2022/10/22 03:58:59;;;;;;;2.63;1.00;;;13.80;99.90;;;;;;5135702;27;20456;-65
2022/10/22 04:01:28;;;;;;;2.30;0.67;;;13.70;99.90;;;;;;5117688;27;20478;-64
2022/10/22 04:03:56;;;;;;;2.00;0.70;;;13.70;99.90;;;;;;5115337;28;20869;-65
2022/10/22 04:06:23;;;;;;;1.80;0.80;;;13.70;99.90;;;;;;5131472;27;20498;-64
2022/10/22 04:08:50;;;;;;;1.80;0.73;;;13.70;99.90;;;;;;5136030;27;20487;-64
2022/10/22 04:11:18;;;;;;;2.87;1.00;;;13.60;99.90;;;;;;5119640;27;20442;-65
2022/10/22 04:13:45;;;;;;;3.20;1.10;;;13.70;99.90;;;;;;5115140;28;20438;-65
2022/10/22 04:16:16;;;;;;;1.90;0.80;;;13.70;99.90;;;;;;5128703;27;20445;-64
2022/10/22 04:18:44;;;;;;;1.60;0.70;;;13.80;99.90;;;;;;5135556;27;20533;-64
2022/10/22 04:21:13;;;;;;;2.80;0.70;;;13.80;99.90;;;;;;5122016;27;20444;-64
2022/10/22 04:23:45;;;;;;;2.53;1.23;;;13.90;99.90;;;;;;5115021;28;20887;-64
2022/10/22 04:26:14;;;;;;;2.53;0.97;;;13.90;99.90;;;;;;5126931;27;20840;-64
2022/10/22 04:28:42;;;;;;;2.73;0.87;;;13.90;99.90;;;;;;5135463;27;20494;-64
2022/10/22 04:31:09;;;;;;;1.80;1.00;;;13.90;99.90;;;;;;5123721;27;20509;-65
2022/10/22 04:33:38;;;;;;;2.07;0.93;;;13.90;99.90;;;;;;5114624;28;20442;-64
2022/10/22 04:36:12;;;;;;;1.90;0.90;;;13.90;99.90;;;;;;5124253;27;20492;-64
2022/10/22 04:38:40;;;;;;;1.70;0.60;;;13.90;99.90;;;;;;5134284;27;20442;-65
2022/10/22 04:41:12;;;;;;;2.17;0.70;;;13.80;99.90;;;;;;5124170;27;20438;-64
2022/10/22 04:43:39;;;;;;;1.80;0.60;;;13.80;99.90;;;;;;5134590;27;20500;-64
2022/10/22 04:46:08;;;;;;;2.20;0.67;;;13.80;99.90;;;;;;5094102;28;20447;-64
2022/10/22 04:48:37;;;;;;;1.70;0.67;;;13.80;99.90;;;;;;5094156;28;20440;-64
2022/10/22 04:51:05;;;;;;;2.73;0.90;;;13.70;99.90;;;;;;5130896;27;20422;-64
2022/10/22 04:53:34;;;;;;;3.50;0.90;;;13.70;99.90;;;;;;5134889;27;20529;-65
2022/10/22 04:56:09;;;;;;;4.03;0.80;;;13.70;99.90;;;;;;5115806;27;20427;-64
2022/10/22 04:58:36;;;;;;;4.23;1.27;;;13.70;99.90;;;;;;5114124;28;21020;-64
2022/10/22 05:01:10;;;;;;;3.07;2.13;;;13.70;99.90;;;;;;5129613;27;20554;-64
2022/10/22 05:03:39;;;;;;;5.47;2.20;;;13.60;99.90;;;;;;5114118;28;20460;-64
2022/10/22 05:06:07;;;;;;;3.27;1.37;;;13.60;99.90;;;;;;5131662;27;20446;-65
2022/10/22 05:08:35;;;;;;;2.87;1.27;;;13.50;99.90;;;;;;5134528;27;21177;-64
2022/10/22 05:11:09;;;;;;;1.90;0.77;;;13.50;99.90;;;;;;5117191;27;20439;-64
2022/10/22 05:13:37;;;;;;;1.90;1.00;;;13.40;99.90;;;;;;5133741;27;20797;-64
2022/10/22 05:16:05;;;;;;;4.13;1.10;;;13.50;99.90;;;;;;5117721;27;20436;-64
2022/10/22 05:18:35;;;;;;;1.90;0.93;;;13.50;99.90;;;;;;5113630;28;20470;-64
2022/10/22 05:21:04;;;;;;;2.57;2.00;;;13.60;99.90;;;;;;5128613;27;20525;-64
2022/10/22 05:23:31;;;;;;;2.50;2.00;;;13.50;99.90;;;;;;5133728;27;20439;-64
2022/10/22 05:26:02;;;;;;;2.57;1.07;;;13.60;99.90;;;;;;5119840;27;20437;-64
2022/10/22 05:28:30;;;;;;;2.50;1.47;;;13.60;99.90;;;;;;5113666;28;20443;-65
2022/10/22 05:30:58;;;;;;;3.43;1.00;;;13.60;99.90;;;;;;5126454;27;20470;-64
2022/10/22 05:33:26;;;;;;;1.70;0.80;;;13.60;99.90;;;;;;5134005;27;20470;-64
2022/10/22 05:35:53;;;;;;;3.27;0.87;;;13.60;99.90;;;;;;5121870;27;20438;-64
2022/10/22 05:38:23;;;;;;;1.70;0.80;;;13.70;99.90;;;;;;5113644;28;20441;-64
2022/10/22 05:41:00;;;;;;;2.13;1.07;;;13.70;99.90;;;;;;5114708;27;20434;-66
2022/10/22 05:43:27;;;;;;;1.93;0.90;;;13.70;99.90;;;;;;5113584;28;20433;-65
2022/10/22 05:45:55;;;;;;;2.23;1.17;;;13.70;99.90;;;;;;5123159;27;20480;-64
2022/10/22 05:48:22;;;;;;;3.07;1.30;;;13.70;99.90;;;;;;5134068;27;20764;-64
2022/10/22 05:50:50;;;;;;;2.60;1.10;;;13.60;99.90;;;;;;5124627;27;20444;-65
2022/10/22 05:53:18;;;;;;;1.80;0.80;;;13.60;99.90;;;;;;5113386;28;20444;-65
2022/10/22 05:55:47;;;;;;;2.40;1.07;;;13.60;99.90;;;;;;5120539;27;20525;-64
2022/10/22 05:58:17;;;;;;;2.67;1.27;;;13.60;99.90;;;;;;5133832;27;20442;-64
2022/10/22 06:00:46;;;;;;;2.50;1.03;;;13.60;99.90;;;;;;5121326;27;20432;-64
2022/10/22 06:03:16;;;;;;;2.93;1.40;;;13.60;99.90;;;;;;5113672;28;20806;-64
2022/10/22 06:05:43;;;;;;;1.90;1.07;;;13.60;99.90;;;;;;5124232;27;20483;-64
2022/10/22 06:08:13;;;;;;;2.10;1.20;;;13.60;99.90;;;;;;5133531;27;20520;-64
2022/10/22 06:10:42;;;;;;;4.77;2.33;;;13.60;99.90;;;;;;5123091;27;20434;-64
2022/10/22 06:13:11;;;;;;;7.03;3.63;;;13.60;99.90;;;;;;5113097;28;20434;-64
2022/10/22 06:15:38;;;;;;;6.97;3.20;;;13.60;99.90;;;;;;5121653;27;20431;-64
2022/10/22 06:18:06;;;;;;;3.93;2.93;;;13.60;99.90;;;;;;5133505;27;20461;-64
2022/10/22 06:20:34;;;;;;;4.37;2.77;;;13.60;99.90;;;;;;5115686;27;20443;-64
2022/10/22 06:23:01;;;;;;;3.13;2.30;;;13.50;99.90;;;;;;5110832;28;20427;-64
2022/10/22 06:25:29;;;;;;;3.50;2.37;;;13.60;99.90;;;;;;5115369;28;20474;-64
2022/10/22 06:27:56;;;;;;;3.90;2.00;;;13.60;99.90;;;;;;5111461;28;20444;-64
2022/10/22 06:30:25;;;;;;;3.77;1.90;;;13.60;99.90;;;;;;5111499;28;20487;-64
2022/10/22 06:32:52;;;;;;;3.53;2.30;;;13.60;99.90;;;;;;5110913;28;20822;-64
2022/10/22 06:35:19;;;;;;;3.50;1.80;;;13.60;99.90;;;;;;5114150;27;20444;-64
2022/10/22 06:37:47;;;;;;;5.13;2.00;;;13.60;99.90;;;;;;5115560;28;20443;-66
2022/10/22 06:40:15;;;;;;;3.20;1.63;;;13.50;99.90;;;;;;5115150;27;20438;-65
2022/10/22 06:42:44;;;;;;;2.20;1.00;;;13.50;99.90;;;;;;5110507;28;20567;-64
2022/10/22 06:45:12;;;;;;;3.37;1.87;;;13.50;99.90;;;;;;5115766;27;20562;-64
2022/10/22 06:47:43;;;;;;;2.63;1.43;;;13.40;99.90;;;;;;5115080;28;20462;-64
2022/10/22 06:50:11;;;;;;;1.83;0.97;;;13.40;99.90;;;;;;5111180;28;20436;-64
2022/10/22 06:52:38;;;;;;;2.17;1.03;;;13.30;99.90;;;;;;5115256;27;20434;-64
2022/10/22 06:55:06;;;;;;;2.13;1.00;;;13.20;99.90;;;;;;5115148;28;20439;-64
2022/10/22 06:57:33;;;;;;;1.73;0.87;;;13.10;99.90;;;;;;5114703;27;20994;-65
2022/10/22 07:00:00;;;;;;;1.90;0.97;;;13.10;99.90;;;;;;5114901;28;20517;-64
2022/10/22 07:02:28;;;;;;;5.03;1.30;;;13.20;99.90;;;;;;5114918;27;20446;-64
2022/10/22 07:04:56;;;;;;;3.03;1.43;;;13.30;99.90;;;;;;5114927;28;21070;-64
2022/10/22 07:07:24;;;;;;;2.03;1.17;;;13.40;99.90;;;;;;5114633;27;20465;-65
2022/10/22 07:09:51;;;;;;;1.97;1.17;;;13.50;99.90;;;;;;5118287;27;20483;-64
2022/10/22 07:12:18;;;;;;;3.20;1.43;;;13.50;99.90;;;;;;5114707;28;20913;-64
2022/10/22 07:14:46;;;;;;;3.53;1.10;;;13.60;99.90;;;;;;5111696;27;20498;-65
2022/10/22 07:17:13;;;;;;;4.23;1.60;;;13.60;99.90;;;;;;5114592;28;20430;-64
2022/10/22 07:19:40;;;;;;;6.83;2.00;;;13.70;99.90;;;;;;5115045;27;20465;-64
2022/10/22 07:22:09;;;;;;;2.37;1.53;;;13.70;99.90;;;;;;5115200;27;20450;-64
2022/10/22 07:24:36;;;;;;;3.20;1.37;;;13.70;99.90;;;;;;5116652;27;20558;-65
2022/10/22 07:27:04;;;;;;;5.27;3.70;;;13.70;99.90;;;;;;5114593;28;20488;-64
2022/10/22 07:29:31;;;;;;;4.80;2.67;;;13.70;99.90;;;;;;5111700;28;20917;-64
2022/10/22 07:31:58;;;;;;;6.10;5.20;;;13.80;99.90;;;;;;5114466;28;20917;-64
2022/10/22 07:34:25;;;;;;;8.50;5.10;;;13.70;99.90;;;;;;5114124;27;21238;-64
2022/10/22 07:36:52;;;;;;;4.27;3.10;;;13.70;99.90;;;;;;5114197;28;20446;-64
2022/10/22 07:39:22;;;;;;;3.10;2.10;;;13.70;99.90;;;;;;5114326;27;20447;-64
2022/10/22 07:41:49;;;;;;;2.40;1.50;;;13.70;99.90;;;;;;5114293;28;20462;-64
2022/10/22 07:44:16;;;;;;;2.20;1.20;;;13.60;99.90;;;;;;5114025;27;20431;-64
2022/10/22 07:46:44;;;;;;;2.70;1.57;;;13.60;99.90;;;;;;5113523;28;20548;-64
2022/10/22 07:49:11;;;;;;;2.50;1.40;;;13.60;99.90;;;;;;5116878;27;20894;-64
2022/10/22 07:51:38;;;;;;;2.80;1.03;;;13.60;99.90;;;;;;5113956;28;20474;-65
2022/10/22 07:54:05;;;;;;;2.17;0.87;;;13.60;99.90;;;;;;5114181;27;20435;-65
2022/10/22 07:56:34;;;;;;;2.77;1.43;;;13.60;99.90;;;;;;5114011;28;20446;-64
2022/10/22 07:59:01;;;;;;;2.83;1.40;;;13.60;99.90;;;;;;5113819;27;20916;-64
2022/10/22 08:01:28;;;;;;;2.63;1.10;;;13.60;99.90;;;;;;5113512;28;20807;-65
2022/10/22 08:03:56;;;;;;;2.87;1.30;;;13.60;99.90;;;;;;5112832;28;20438;-64
2022/10/22 08:06:23;;;;;;;2.73;1.20;;;13.60;99.90;;;;;;5113696;28;20483;-65
2022/10/22 08:08:50;;;;;;;2.13;1.13;;;13.60;99.90;;;;;;5113838;27;20438;-64
2022/10/22 08:11:18;;;;;;;2.50;1.40;;;13.60;99.90;;;;;;5113131;28;20538;-67
2022/10/22 08:13:46;;;;;;;3.73;1.30;;;13.70;99.90;;;;;;5114343;27;20445;-64
2022/10/22 08:16:15;;;;;;;3.43;2.00;;;13.70;99.90;;;;;;5113644;28;20436;-64
2022/10/22 08:18:42;;;;;;;5.93;1.67;;;13.60;99.90;;;;;;5112826;27;20500;-65
2022/10/22 08:21:10;;;;;;;2.47;1.10;;;13.60;99.90;;;;;;5111255;28;21299;-64
2022/10/22 08:23:37;;;;;;;3.47;2.17;;;13.50;99.90;;;;;;5113121;27;20437;-64
2022/10/22 08:26:05;;;;;;;2.07;1.10;;;13.50;99.90;;;;;;5113415;28;20883;-64
2022/10/22 08:28:35;;;;;;;5.13;1.37;;;13.50;99.90;;;;;;5112875;28;20427;-65
2022/10/22 08:31:04;;;;;;;5.20;3.27;;;13.50;99.90;;;;;;5109644;28;20436;-65
2022/10/22 08:33:33;;;;;;;3.57;1.73;;;13.50;99.90;;;;;;5113154;27;20440;-64
2022/10/22 08:36:05;;;;;;;7.23;1.10;;;13.60;99.90;;;;;;5113010;28;20442;-65
2022/10/22 08:38:34;;;;;;;2.53;1.20;;;13.70;99.90;;;;;;5113859;27;20439;-64
2022/10/22 08:41:09;;;;;;;2.00;0.80;;;13.80;99.90;;;;;;5113034;28;20438;-64
2022/10/22 08:44:24;;;;;;;2.13;1.17;;;13.90;99.90;;;;;;5112635;27;20821;-64
2022/10/22 08:47:19;;;;;;;3.63;1.83;;;14.00;99.90;;;;;;5050198;28;20631;-64
2022/10/22 08:49:46;;;;;;;2.47;1.20;;;14.10;99.90;;;;;;5109897;27;20444;-64
2022/10/22 08:52:18;;;;;;;5.60;3.20;;;14.20;99.90;;;;;;5112708;27;20442;-64
2022/10/22 08:54:51;;;;;;;4.47;3.20;;;14.30;99.90;;;;;;5115764;27;20498;-64
2022/10/22 08:57:36;;;;;;;6.80;2.10;;;14.40;99.90;;;;;;5114653;27;20453;-65
2022/10/22 09:00:06;;;;;;;2.70;1.57;;;14.50;99.90;;;;;;5111008;27;20838;-64
2022/10/22 09:02:46;;;;;;;3.30;1.03;;;14.50;99.90;;;;;;5099888;28;20871;-65
2022/10/22 09:05:23;;;;;;;1.87;1.00;;;14.60;99.90;;;;;;5112044;28;20508;-64
2022/10/22 09:07:51;;;;;;;3.77;2.77;;;14.60;99.90;;;;;;5112609;28;20780;-64
2022/10/22 09:10:21;;;;;;;3.07;2.27;;;14.60;99.90;;;;;;5112119;28;20468;-65
2022/10/22 09:12:48;;;;;;;3.40;1.40;;;14.70;99.90;;;;;;5113550;27;20536;-65
2022/10/22 09:15:17;;;;;;;1.90;1.27;;;14.80;99.90;;;;;;5113354;27;20527;-65
2022/10/22 09:17:59;;;;;;;2.67;1.63;;;14.90;99.90;;;;;;5108650;28;20466;-64
2022/10/22 09:20:34;;;;;;;8.20;2.93;;;14.90;99.90;;;;;;5115623;27;20489;-64
2022/10/22 09:23:15;;;;;;;3.30;1.63;;;14.90;99.90;;;;;;5113028;27;20825;-64
2022/10/22 09:25:43;;;;;;;1.77;1.00;;;15.00;99.90;;;;;;5111504;28;20532;-64
2022/10/22 09:28:11;;;;;;;7.10;1.60;;;15.00;99.90;;;;;;5112205;28;20478;-64
2022/10/22 09:30:40;;;;;;;3.27;0.93;;;14.90;99.90;;;;;;5112616;28;20468;-64
2022/10/22 09:33:14;;;;;;;2.73;1.63;;;14.90;99.90;;;;;;5112211;28;20437;-64
2022/10/22 09:36:02;;;;;;;3.10;0.90;;;15.00;99.90;;;;;;5112759;28;20780;-64
2022/10/22 09:38:32;;;;;;;3.60;1.50;;;15.10;99.90;;;;;;5112507;28;20441;-67
2022/10/22 09:41:02;;;;;;;2.27;1.00;;;15.20;99.90;;;;;;5112233;28;20434;-64
2022/10/22 09:43:29;;;;;;;2.07;1.33;;;15.30;99.90;;;;;;5111996;28;20440;-65
2022/10/22 09:45:59;;;;;;;4.37;1.37;;;15.50;99.90;;;;;;5112184;28;20573;-64
2022/10/22 09:48:33;;;;;;;5.37;1.83;;;15.70;99.90;;;;;;5112213;28;20476;-65
2022/10/22 09:51:05;;;;;;;4.00;2.60;;;16.10;99.90;;;;;;5112102;28;20444;-65
2022/10/22 09:53:38;;;;;;;2.80;1.70;;;16.30;99.90;;;;;;5112266;28;20437;-64
2022/10/22 09:56:10;;;;;;;2.80;1.87;;;16.70;99.90;;;;;;5108564;28;20441;-65
2022/10/22 09:58:45;;;;;;;3.60;2.03;;;17.10;99.90;;;;;;5111030;28;20523;-65
2022/10/22 10:01:18;;;;;;;2.20;1.00;;;17.70;99.90;;;;;;5112100;27;20438;-64
2022/10/22 10:03:49;;;;;;;2.83;1.23;;;18.10;99.50;;;;;;5107075;28;20471;-65
2022/10/22 10:06:19;;;;;;;4.90;2.00;;;18.50;97.20;;;;;;5111396;27;20478;-66
2022/10/22 10:08:46;;;;;;;3.43;1.50;;;19.10;97.60;;;;;;5115487;27;20434;-65
2022/10/22 10:11:22;;;;;;;3.10;1.30;;;20.00;94.80;;;;;;5106821;28;20441;-65
2022/10/22 10:14:00;;;;;;;3.07;1.00;;;20.80;92.40;;;;;;5113422;27;20477;-66
2022/10/22 10:16:38;;;;;;;2.53;1.27;;;22.20;92.20;;;;;;5107397;28;20521;-65
2022/10/22 10:19:30;;;;;;;2.30;1.20;;;25.00;84.70;;;;;;5111145;28;20461;-65
2022/10/22 10:22:09;;;;;;;3.03;1.70;;;27.00;66.60;;;;;;5110144;28;21005;-65
2022/10/22 10:24:56;;;;;;;3.30;1.80;;;28.00;60.50;;;;;;5107961;28;20507;-66
2022/10/22 10:27:30;;;;;;;5.43;3.07;;;29.30;52.90;;;;;;5110900;28;20481;-67
2022/10/22 10:30:05;;;;;;;4.70;2.60;;;31.10;49.90;;;;;;5110105;28;20441;-66
2022/10/22 10:32:51;;;;;;;2.93;1.10;;;32.50;44.60;;;;;;5110072;28;20520;-66
2022/10/22 10:35:26;;;;;;;1.90;0.70;;;33.10;37.50;;;;;;5110638;28;20492;-66
2022/10/22 10:38:08;;;;;;;4.67;1.60;;;33.60;36.70;;;;;;5110808;28;20928;-66
2022/10/22 10:40:44;;;;;;;5.10;2.03;;;34.00;36.80;;;;;;5106655;28;20839;-66
2022/10/22 10:43:16;;;;;;;6.60;3.00;;;35.80;34.40;;;;;;5110870;28;20524;-66
2022/10/22 10:45:48;;;;;;;5.03;1.03;;;36.40;34.00;;;;;;5111586;28;20550;-66
2022/10/22 10:48:31;;;;;;;1.90;0.80;;;37.90;28.60;;;;;;5107781;28;20865;-66
2022/10/22 10:51:07;;;;;;;2.00;0.73;;;39.70;29.40;;;;;;5106684;28;20430;-66
2022/10/22 10:53:52;;;;;;;2.30;0.80;;;41.70;26.00;;;;;;5111026;28;20434;-65
2022/10/22 10:56:32;;;;;;;1.67;0.60;;;42.10;23.80;;;;;;5107937;28;20499;-67
2022/10/22 10:59:08;;;;;;;2.00;0.90;;;41.70;22.00;;;;;;5110618;28;20478;-66
2022/10/22 11:01:42;;;;;;;2.87;0.80;;;40.70;23.70;;;;;;5110442;28;20460;-66
2022/10/22 11:04:40;;;;;;;4.23;0.97;;;40.40;23.80;;;;;;5109829;28;20457;-67
2022/10/22 11:07:14;;;;;;;2.10;0.80;;;40.10;22.60;;;;;;5047931;28;20523;-66
2022/10/22 11:09:46;;;;;;;6.80;6.10;;;39.90;24.00;;;;;;5109829;28;21014;-67
2022/10/22 11:12:21;;;;;;;4.60;1.03;;;40.80;24.40;;;;;;5111288;28;20498;-66
2022/10/22 11:14:56;;;;;;;1.90;0.93;;;41.80;23.20;;;;;;5110894;28;20444;-67
2022/10/22 11:17:26;;;;;;;2.47;0.90;;;42.30;22.40;;;;;;5110827;28;20964;-68
2022/10/22 11:20:02;;;;;;;2.37;0.73;;;43.30;22.50;;;;;;5106884;28;21018;-67
2022/10/22 11:22:34;;;;;;;1.80;0.77;;;43.90;20.70;;;;;;5110718;28;20437;-66
2022/10/22 11:25:06;;;;;;;2.67;1.00;;;44.20;21.10;;;;;;5108052;28;20537;-66
2022/10/22 11:27:39;;;;;;;2.47;1.10;;;44.90;20.40;;;;;;5113434;27;20477;-66
2022/10/22 11:30:13;;;;;;;1.80;0.70;;;45.10;19.80;;;;;;5113836;28;20438;-67
2022/10/22 11:32:42;;;;;;;3.40;0.93;;;45.40;19.20;;;;;;5114701;27;20447;-66
2022/10/22 11:35:18;;;;;;;2.27;1.07;;;45.90;18.10;;;;;;5114225;28;20509;-66
2022/10/22 11:37:48;;;;;;;3.30;2.53;;;46.50;18.20;;;;;;5110254;27;20848;-67
2022/10/22 11:40:20;;;;;;;2.00;1.20;;;47.40;17.70;;;;;;5114054;28;20470;-67
2022/10/22 11:42:50;;;;;;;3.23;1.40;;;47.80;16.70;;;;;;5114168;28;20438;-67
2022/10/22 11:45:29;;;;;;;1.80;0.80;;;48.00;15.70;;;;;;5117759;27;20491;-67
2022/10/22 11:48:04;;;;;;;2.77;2.23;;;48.50;15.40;;;;;;5114325;27;20526;-68
2022/10/22 11:50:46;;;;;;;2.30;1.07;;;48.80;14.70;;;;;;5114037;28;20436;-67
2022/10/22 11:53:21;;;;;;;3.10;1.00;;;48.90;15.00;;;;;;5114453;27;20807;-67
2022/10/22 11:55:50;;;;;;;2.00;0.77;;;48.00;13.50;;;;;;5113667;28;20446;-67
2022/10/22 11:58:31;;;;;;;1.83;0.60;;;47.20;14.60;;;;;;5113954;28;20434;-67
2022/10/22 12:01:18;;;;;;;1.60;0.60;;;47.20;14.20;;;;;;5110440;27;20488;-67
2022/10/22 12:03:49;;;;;;;4.23;0.77;;;47.50;15.00;;;;;;5109912;28;20478;-67
2022/10/22 12:06:23;;;;;;;3.00;0.70;;;48.20;14.10;;;;;;5113583;27;20518;-67
2022/10/22 12:09:10;;;;;;;2.00;1.00;;;48.20;13.70;;;;;;5113220;28;20450;-67
2022/10/22 12:11:40;;;;;;;9.50;8.60;;;48.50;13.70;;;;;;5113121;27;20430;-65
2022/10/22 12:14:25;;;;;;;3.60;2.87;;;48.60;13.50;;;;;;5109153;27;21014;-66
2022/10/22 12:16:56;;;;;;;1.87;1.10;;;48.90;13.60;;;;;;5110209;28;20481;-66
2022/10/22 12:19:32;;;;;;;1.80;0.67;;;49.20;13.40;;;;;;5112815;27;20469;-65
2022/10/22 12:22:06;;;;;;;3.57;1.20;;;49.40;13.50;;;;;;5119978;27;20434;-65
2022/10/22 12:24:39;;;;;;;2.03;0.80;;;49.30;13.20;;;;;;5111498;27;20426;-65
2022/10/22 12:27:20;;;;;;;6.10;5.50;;;49.30;13.10;;;;;;5115569;27;20816;-65
2022/10/22 12:29:54;;;;;;;6.37;5.77;;;49.30;13.20;;;;;;5112850;27;20442;-65
2022/10/22 12:32:21;;;;;;;5.70;5.20;;;49.10;13.00;;;;;;5114172;27;20442;-65
2022/10/22 12:34:50;;;;;;;3.40;1.67;;;49.00;13.10;;;;;;5115707;27;20453;-65
2022/10/22 12:37:20;;;;;;;3.50;1.47;;;49.00;12.90;;;;;;5115946;27;20485;-65
2022/10/22 12:39:48;;;;;;;3.17;1.20;;;48.80;12.60;;;;;;5116386;27;20487;-65
2022/10/22 12:42:17;;;;;;;2.53;1.60;;;47.20;12.40;;;;;;5114989;27;20429;-65
2022/10/22 12:44:45;;;;;;;2.67;0.80;;;44.80;12.40;;;;;;5110854;27;20525;-64
2022/10/22 12:47:16;;;;;;;2.50;0.80;;;42.80;14.90;;;;;;5113597;27;20444;-64
2022/10/22 12:49:47;;;;;;;5.10;4.60;;;42.80;15.30;;;;;;5113744;27;20927;-66
2022/10/22 12:52:17;;;;;;;5.30;4.60;;;43.40;15.50;;;;;;5114721;27;20453;-64
2022/10/22 12:54:47;;;;;;;4.23;2.20;;;42.80;15.50;;;;;;5116294;27;20444;-64
2022/10/22 12:57:18;;;;;;;7.80;7.10;;;42.90;15.60;;;;;;5114088;27;20560;-65
2022/10/22 12:59:51;;;;;;;1.90;0.93;;;43.10;15.60;;;;;;5114042;27;20520;-65
2022/10/22 13:02:23;;;;;;;2.33;0.80;;;43.40;15.10;;;;;;5111054;27;20443;-64
2022/10/22 13:05:22;;;;;;;2.03;0.60;;;43.60;15.20;;;;;;5111182;28;20438;-65
2022/10/22 13:07:52;;;;;;;4.10;3.07;;;43.70;15.50;;;;;;5113598;27;20429;-65
2022/10/22 13:10:24;;;;;;;10.43;6.30;;;43.60;15.40;;;;;;5111825;27;20491;-64
2022/10/22 13:12:56;;;;;;;3.93;1.80;;;43.50;15.40;;;;;;5110555;27;20453;-65
2022/10/22 13:15:35;;;;;;;3.03;1.13;;;43.20;15.20;;;;;;5116445;27;20803;-64
2022/10/22 13:18:05;;;;;;;2.83;0.80;;;42.70;15.50;;;;;;5112490;27;20528;-65
2022/10/22 13:20:36;;;;;;;3.13;1.10;;;41.70;15.80;;;;;;5109452;27;20837;-64
2022/10/22 13:23:06;;;;;;;5.93;4.70;;;40.30;16.20;;;;;;5116037;27;21016;-64
2022/10/22 13:25:35;;;;;;;3.30;2.37;;;38.70;16.50;;;;;;5111849;27;20438;-69